sensor_id;sensor_type;location;lat;lon;timestamp;P1;durP1;ratioP1;P2;durP2;ratioP2
34567;SDS011;20806;50.746;7.116;2022-12-07T00:02:22;3.30;;;3.00;;
34567;SDS011;20806;50.746;7.116;2022-12-07T00:04:48;3.10;;;2.90;;
34567;SDS011;20806;50.746;7.116;2022-12-07T00:07:14;3.28;;;2.97;;
34567;SDS011;20806;50.746;7.116;2022-12-07T00:09:39;3.27;;;3.07;;
34567;SDS011;20806;50.746;7.116;2022-12-07T00:12:06;3.30;;;3.03;;
34567;SDS011;20806;50.746;7.116;2022-12-07T00:14:33;3.50;;;3.20;;
34567;SDS011;20806;50.746;7.116;2022-12-07T00:16:58;3.27;;;2.97;;
34567;SDS011;20806;50.746;7.116;2022-12-07T00:19:24;3.60;;;3.30;;
34567;SDS011;20806;50.746;7.116;2022-12-07T00:21:49;4.00;;;3.60;;
34567;SDS011;20806;50.746;7.116;2022-12-07T00:24:15;3.60;;;3.30;;
34567;SDS011;20806;50.746;7.116;2022-12-07T00:26:41;3.90;;;3.57;;
34567;SDS011;20806;50.746;7.116;2022-12-07T00:29:17;3.53;;;3.23;;
34567;SDS011;20806;50.746;7.116;2022-12-07T00:31:45;4.00;;;3.70;;
34567;SDS011;20806;50.746;7.116;2022-12-07T00:34:12;3.97;;;3.67;;
34567;SDS011;20806;50.746;7.116;2022-12-07T00:36:40;3.85;;;3.55;;
34567;SDS011;20806;50.746;7.116;2022-12-07T00:39:05;4.05;;;3.75;;
34567;SDS011;20806;50.746;7.116;2022-12-07T00:41:31;4.20;;;3.70;;
34567;SDS011;20806;50.746;7.116;2022-12-07T00:43:57;3.75;;;3.45;;
34567;SDS011;20806;50.746;7.116;2022-12-07T00:46:23;4.65;;;4.18;;
34567;SDS011;20806;50.746;7.116;2022-12-07T00:48:49;4.50;;;4.10;;
34567;SDS011;20806;50.746;7.116;2022-12-07T00:51:17;4.30;;;3.95;;
34567;SDS011;20806;50.746;7.116;2022-12-07T00:53:44;4.10;;;3.67;;
34567;SDS011;20806;50.746;7.116;2022-12-07T00:56:28;4.15;;;3.75;;
34567;SDS011;20806;50.746;7.116;2022-12-07T00:58:58;4.38;;;3.95;;
34567;SDS011;20806;50.746;7.116;2022-12-07T01:01:29;4.28;;;3.78;;
34567;SDS011;20806;50.746;7.116;2022-12-07T01:03:59;3.97;;;3.60;;
34567;SDS011;20806;50.746;7.116;2022-12-07T01:06:28;4.38;;;3.97;;
34567;SDS011;20806;50.746;7.116;2022-12-07T01:08:54;4.50;;;4.10;;
34567;SDS011;20806;50.746;7.116;2022-12-07T01:11:22;4.45;;;4.05;;
34567;SDS011;20806;50.746;7.116;2022-12-07T01:13:51;4.72;;;4.30;;
34567;SDS011;20806;50.746;7.116;2022-12-07T01:16:18;4.13;;;3.78;;
34567;SDS011;20806;50.746;7.116;2022-12-07T01:18:48;4.18;;;3.88;;
34567;SDS011;20806;50.746;7.116;2022-12-07T01:21:16;4.03;;;3.70;;
34567;SDS011;20806;50.746;7.116;2022-12-07T01:23:46;4.20;;;3.80;;
34567;SDS011;20806;50.746;7.116;2022-12-07T01:26:13;4.22;;;3.92;;
34567;SDS011;20806;50.746;7.116;2022-12-07T01:28:40;5.30;;;4.80;;
34567;SDS011;20806;50.746;7.116;2022-12-07T01:33:35;4.85;;;4.45;;
34567;SDS011;20806;50.746;7.116;2022-12-07T01:36:05;4.60;;;4.20;;
34567;SDS011;20806;50.746;7.116;2022-12-07T01:38:31;5.00;;;4.50;;
34567;SDS011;20806;50.746;7.116;2022-12-07T01:40:57;4.50;;;4.10;;
34567;SDS011;20806;50.746;7.116;2022-12-07T01:43:25;4.43;;;4.05;;
34567;SDS011;20806;50.746;7.116;2022-12-07T01:45:53;4.22;;;3.83;;
34567;SDS011;20806;50.746;7.116;2022-12-07T01:48:24;4.53;;;4.13;;
34567;SDS011;20806;50.746;7.116;2022-12-07T01:50:53;4.35;;;4.03;;
34567;SDS011;20806;50.746;7.116;2022-12-07T01:53:21;5.18;;;4.70;;
34567;SDS011;20806;50.746;7.116;2022-12-07T01:55:51;4.45;;;4.05;;
34567;SDS011;20806;50.746;7.116;2022-12-07T01:58:17;4.80;;;4.30;;
34567;SDS011;20806;50.746;7.116;2022-12-07T02:00:43;4.80;;;4.30;;
34567;SDS011;20806;50.746;7.116;2022-12-07T02:03:11;4.57;;;4.18;;
34567;SDS011;20806;50.746;7.116;2022-12-07T02:05:43;5.07;;;4.60;;
34567;SDS011;20806;50.746;7.116;2022-12-07T02:08:09;4.45;;;4.05;;
34567;SDS011;20806;50.746;7.116;2022-12-07T02:10:36;4.57;;;4.18;;
34567;SDS011;20806;50.746;7.116;2022-12-07T02:13:13;5.20;;;4.70;;
34567;SDS011;20806;50.746;7.116;2022-12-07T02:18:56;5.53;;;4.70;;
34567;SDS011;20806;50.746;7.116;2022-12-07T02:21:45;5.40;;;4.90;;
34567;SDS011;20806;50.746;7.116;2022-12-07T02:24:41;4.78;;;4.38;;
34567;SDS011;20806;50.746;7.116;2022-12-07T02:30:02;5.47;;;4.97;;
34567;SDS011;20806;50.746;7.116;2022-12-07T02:32:40;5.10;;;4.67;;
34567;SDS011;20806;50.746;7.116;2022-12-07T02:38:14;4.80;;;4.40;;
34567;SDS011;20806;50.746;7.116;2022-12-07T02:41:27;5.20;;;4.70;;
34567;SDS011;20806;50.746;7.116;2022-12-07T02:46:21;5.23;;;4.73;;
34567;SDS011;20806;50.746;7.116;2022-12-07T02:49:04;6.18;;;5.10;;
34567;SDS011;20806;50.746;7.116;2022-12-07T02:51:31;5.07;;;4.60;;
34567;SDS011;20806;50.746;7.116;2022-12-07T02:53:58;5.07;;;4.68;;
34567;SDS011;20806;50.746;7.116;2022-12-07T02:56:31;5.78;;;5.18;;
34567;SDS011;20806;50.746;7.116;2022-12-07T03:04:43;5.70;;;5.10;;
34567;SDS011;20806;50.746;7.116;2022-12-07T03:10:24;5.80;;;5.20;;
34567;SDS011;20806;50.746;7.116;2022-12-07T03:13:09;5.20;;;4.80;;
34567;SDS011;20806;50.746;7.116;2022-12-07T03:15:43;5.78;;;5.28;;
34567;SDS011;20806;50.746;7.116;2022-12-07T03:18:30;6.10;;;5.50;;
34567;SDS011;20806;50.746;7.116;2022-12-07T03:21:02;5.20;;;4.80;;
34567;SDS011;20806;50.746;7.116;2022-12-07T03:23:33;5.75;;;4.90;;
34567;SDS011;20806;50.746;7.116;2022-12-07T03:26:02;5.97;;;5.20;;
34567;SDS011;20806;50.746;7.116;2022-12-07T03:28:31;6.80;;;6.10;;
34567;SDS011;20806;50.746;7.116;2022-12-07T03:31:02;6.10;;;5.10;;
34567;SDS011;20806;50.746;7.116;2022-12-07T03:36:30;6.97;;;6.35;;
34567;SDS011;20806;50.746;7.116;2022-12-07T03:39:02;6.15;;;5.55;;
34567;SDS011;20806;50.746;7.116;2022-12-07T03:41:39;6.03;;;5.45;;
34567;SDS011;20806;50.746;7.116;2022-12-07T03:44:05;6.35;;;5.70;;
34567;SDS011;20806;50.746;7.116;2022-12-07T03:46:36;5.40;;;4.90;;
34567;SDS011;20806;50.746;7.116;2022-12-07T03:52:08;6.40;;;5.80;;
34567;SDS011;20806;50.746;7.116;2022-12-07T03:57:40;5.75;;;5.20;;
34567;SDS011;20806;50.746;7.116;2022-12-07T04:00:08;6.07;;;5.50;;
34567;SDS011;20806;50.746;7.116;2022-12-07T04:02:35;5.65;;;5.15;;
34567;SDS011;20806;50.746;7.116;2022-12-07T04:05:01;5.90;;;5.30;;
34567;SDS011;20806;50.746;7.116;2022-12-07T04:07:27;4.95;;;4.55;;
34567;SDS011;20806;50.746;7.116;2022-12-07T04:09:53;5.10;;;4.70;;
34567;SDS011;20806;50.746;7.116;2022-12-07T04:12:20;5.63;;;5.13;;
34567;SDS011;20806;50.746;7.116;2022-12-07T04:14:45;5.78;;;5.28;;
34567;SDS011;20806;50.746;7.116;2022-12-07T04:17:11;5.85;;;5.30;;
34567;SDS011;20806;50.746;7.116;2022-12-07T04:19:37;6.30;;;5.70;;
34567;SDS011;20806;50.746;7.116;2022-12-07T04:22:05;5.83;;;5.23;;
34567;SDS011;20806;50.746;7.116;2022-12-07T04:24:33;6.20;;;5.60;;
34567;SDS011;20806;50.746;7.116;2022-12-07T04:26:59;6.55;;;5.95;;
34567;SDS011;20806;50.746;7.116;2022-12-07T04:29:24;5.80;;;5.20;;
34567;SDS011;20806;50.746;7.116;2022-12-07T04:31:50;5.63;;;5.13;;
34567;SDS011;20806;50.746;7.116;2022-12-07T04:34:17;5.35;;;4.85;;
34567;SDS011;20806;50.746;7.116;2022-12-07T04:36:43;5.97;;;5.38;;
34567;SDS011;20806;50.746;7.116;2022-12-07T04:39:13;5.95;;;4.97;;
34567;SDS011;20806;50.746;7.116;2022-12-07T04:41:46;5.18;;;4.68;;
34567;SDS011;20806;50.746;7.116;2022-12-07T04:44:13;5.72;;;5.22;;
34567;SDS011;20806;50.746;7.116;2022-12-07T04:46:40;6.20;;;5.60;;
34567;SDS011;20806;50.746;7.116;2022-12-07T04:49:06;6.28;;;5.68;;
34567;SDS011;20806;50.746;7.116;2022-12-07T04:51:32;6.50;;;5.90;;
34567;SDS011;20806;50.746;7.116;2022-12-07T04:53:57;6.05;;;5.55;;
34567;SDS011;20806;50.746;7.116;2022-12-07T04:56:23;5.90;;;5.30;;
34567;SDS011;20806;50.746;7.116;2022-12-07T04:58:50;5.40;;;4.90;;
34567;SDS011;20806;50.746;7.116;2022-12-07T05:01:17;5.40;;;4.90;;
34567;SDS011;20806;50.746;7.116;2022-12-07T05:03:43;5.25;;;4.75;;
34567;SDS011;20806;50.746;7.116;2022-12-07T05:06:10;5.70;;;5.20;;
34567;SDS011;20806;50.746;7.116;2022-12-07T05:08:36;5.50;;;4.90;;
34567;SDS011;20806;50.746;7.116;2022-12-07T05:11:02;6.38;;;4.90;;
34567;SDS011;20806;50.746;7.116;2022-12-07T05:13:29;5.03;;;4.53;;
34567;SDS011;20806;50.746;7.116;2022-12-07T05:15:56;5.10;;;4.60;;
34567;SDS011;20806;50.746;7.116;2022-12-07T05:18:21;4.50;;;4.10;;
34567;SDS011;20806;50.746;7.116;2022-12-07T05:20:48;4.60;;;4.20;;
34567;SDS011;20806;50.746;7.116;2022-12-07T05:23:14;4.00;;;3.60;;
34567;SDS011;20806;50.746;7.116;2022-12-07T05:25:39;4.30;;;3.90;;
34567;SDS011;20806;50.746;7.116;2022-12-07T05:28:05;4.00;;;3.63;;
34567;SDS011;20806;50.746;7.116;2022-12-07T05:30:31;3.70;;;3.40;;
34567;SDS011;20806;50.746;7.116;2022-12-07T05:32:57;3.70;;;3.40;;
34567;SDS011;20806;50.746;7.116;2022-12-07T05:35:23;3.70;;;3.40;;
34567;SDS011;20806;50.746;7.116;2022-12-07T05:37:48;3.70;;;3.40;;
34567;SDS011;20806;50.746;7.116;2022-12-07T05:40:14;4.60;;;4.20;;
34567;SDS011;20806;50.746;7.116;2022-12-07T05:42:40;4.22;;;3.90;;
34567;SDS011;20806;50.746;7.116;2022-12-07T05:45:06;3.90;;;3.60;;
34567;SDS011;20806;50.746;7.116;2022-12-07T05:47:33;4.20;;;3.80;;
34567;SDS011;20806;50.746;7.116;2022-12-07T05:49:58;4.37;;;3.90;;
34567;SDS011;20806;50.746;7.116;2022-12-07T05:52:24;4.13;;;3.73;;
34567;SDS011;20806;50.746;7.116;2022-12-07T05:54:50;5.90;;;4.60;;
34567;SDS011;20806;50.746;7.116;2022-12-07T05:57:16;5.43;;;4.93;;
34567;SDS011;20806;50.746;7.116;2022-12-07T05:59:42;5.00;;;4.50;;
34567;SDS011;20806;50.746;7.116;2022-12-07T06:02:08;5.10;;;4.22;;
34567;SDS011;20806;50.746;7.116;2022-12-07T06:04:37;5.25;;;4.55;;
34567;SDS011;20806;50.746;7.116;2022-12-07T06:07:04;5.47;;;4.80;;
34567;SDS011;20806;50.746;7.116;2022-12-07T06:09:31;5.45;;;4.90;;
34567;SDS011;20806;50.746;7.116;2022-12-07T06:11:57;5.30;;;4.80;;
34567;SDS011;20806;50.746;7.116;2022-12-07T06:14:42;5.50;;;4.90;;
34567;SDS011;20806;50.746;7.116;2022-12-07T06:17:08;4.80;;;4.40;;
34567;SDS011;20806;50.746;7.116;2022-12-07T06:19:33;5.03;;;4.53;;
34567;SDS011;20806;50.746;7.116;2022-12-07T06:22:00;6.00;;;5.40;;
34567;SDS011;20806;50.746;7.116;2022-12-07T06:24:25;4.70;;;4.10;;
34567;SDS011;20806;50.746;7.116;2022-12-07T06:26:51;5.07;;;4.57;;
34567;SDS011;20806;50.746;7.116;2022-12-07T06:29:17;4.87;;;4.47;;
34567;SDS011;20806;50.746;7.116;2022-12-07T06:31:43;4.90;;;4.45;;
34567;SDS011;20806;50.746;7.116;2022-12-07T06:34:10;4.50;;;4.10;;
34567;SDS011;20806;50.746;7.116;2022-12-07T06:36:40;4.65;;;4.20;;
34567;SDS011;20806;50.746;7.116;2022-12-07T06:39:06;4.63;;;4.22;;
34567;SDS011;20806;50.746;7.116;2022-12-07T06:41:34;4.40;;;4.00;;
34567;SDS011;20806;50.746;7.116;2022-12-07T06:44:03;4.90;;;4.10;;
34567;SDS011;20806;50.746;7.116;2022-12-07T06:46:30;4.47;;;4.03;;
34567;SDS011;20806;50.746;7.116;2022-12-07T06:48:55;4.63;;;4.20;;
34567;SDS011;20806;50.746;7.116;2022-12-07T06:51:21;4.63;;;4.23;;
34567;SDS011;20806;50.746;7.116;2022-12-07T06:53:47;5.63;;;4.80;;
34567;SDS011;20806;50.746;7.116;2022-12-07T06:56:12;5.40;;;4.90;;
34567;SDS011;20806;50.746;7.116;2022-12-07T06:58:38;4.60;;;4.20;;
34567;SDS011;20806;50.746;7.116;2022-12-07T07:01:08;4.75;;;4.25;;
34567;SDS011;20806;50.746;7.116;2022-12-07T07:03:35;4.28;;;3.90;;
34567;SDS011;20806;50.746;7.116;2022-12-07T07:06:01;4.75;;;3.95;;
34567;SDS011;20806;50.746;7.116;2022-12-07T07:08:26;4.63;;;4.20;;
34567;SDS011;20806;50.746;7.116;2022-12-07T07:10:52;4.40;;;4.00;;
34567;SDS011;20806;50.746;7.116;2022-12-07T07:13:17;4.13;;;3.72;;
34567;SDS011;20806;50.746;7.116;2022-12-07T07:15:43;3.77;;;3.37;;
34567;SDS011;20806;50.746;7.116;2022-12-07T07:18:08;4.00;;;3.63;;
34567;SDS011;20806;50.746;7.116;2022-12-07T07:20:34;3.93;;;3.53;;
34567;SDS011;20806;50.746;7.116;2022-12-07T07:23:00;3.70;;;3.20;;
34567;SDS011;20806;50.746;7.116;2022-12-07T07:25:25;3.70;;;3.40;;
34567;SDS011;20806;50.746;7.116;2022-12-07T07:27:51;4.00;;;3.60;;
34567;SDS011;20806;50.746;7.116;2022-12-07T07:30:17;3.42;;;3.10;;
34567;SDS011;20806;50.746;7.116;2022-12-07T07:32:42;3.35;;;3.05;;
34567;SDS011;20806;50.746;7.116;2022-12-07T07:35:08;3.43;;;3.13;;
34567;SDS011;20806;50.746;7.116;2022-12-07T07:37:33;3.00;;;2.80;;
34567;SDS011;20806;50.746;7.116;2022-12-07T07:39:59;3.00;;;2.80;;
34567;SDS011;20806;50.746;7.116;2022-12-07T07:42:24;5.57;;;4.87;;
34567;SDS011;20806;50.746;7.116;2022-12-07T07:44:50;3.80;;;3.20;;
34567;SDS011;20806;50.746;7.116;2022-12-07T07:47:16;3.83;;;3.30;;
34567;SDS011;20806;50.746;7.116;2022-12-07T07:49:41;3.23;;;3.03;;
34567;SDS011;20806;50.746;7.116;2022-12-07T07:52:07;3.50;;;3.20;;
34567;SDS011;20806;50.746;7.116;2022-12-07T07:54:32;3.15;;;2.85;;
34567;SDS011;20806;50.746;7.116;2022-12-07T07:56:58;4.00;;;3.57;;
34567;SDS011;20806;50.746;7.116;2022-12-07T07:59:24;3.47;;;3.17;;
34567;SDS011;20806;50.746;7.116;2022-12-07T08:01:50;3.80;;;3.40;;
34567;SDS011;20806;50.746;7.116;2022-12-07T08:04:15;3.10;;;2.90;;
34567;SDS011;20806;50.746;7.116;2022-12-07T08:06:41;3.40;;;3.10;;
34567;SDS011;20806;50.746;7.116;2022-12-07T08:09:07;3.47;;;3.10;;
34567;SDS011;20806;50.746;7.116;2022-12-07T08:11:33;3.97;;;3.42;;
34567;SDS011;20806;50.746;7.116;2022-12-07T08:13:58;3.75;;;3.45;;
34567;SDS011;20806;50.746;7.116;2022-12-07T08:16:24;4.15;;;3.70;;
34567;SDS011;20806;50.746;7.116;2022-12-07T08:18:49;3.67;;;3.37;;
34567;SDS011;20806;50.746;7.116;2022-12-07T08:21:15;4.40;;;3.77;;
34567;SDS011;20806;50.746;7.116;2022-12-07T08:23:41;4.43;;;4.03;;
34567;SDS011;20806;50.746;7.116;2022-12-07T08:26:09;5.00;;;4.03;;
34567;SDS011;20806;50.746;7.116;2022-12-07T08:28:36;4.40;;;3.88;;
34567;SDS011;20806;50.746;7.116;2022-12-07T08:31:02;4.20;;;3.80;;
34567;SDS011;20806;50.746;7.116;2022-12-07T08:33:30;3.88;;;3.55;;
34567;SDS011;20806;50.746;7.116;2022-12-07T08:36:06;4.35;;;3.95;;
34567;SDS011;20806;50.746;7.116;2022-12-07T08:38:37;4.20;;;3.80;;
34567;SDS011;20806;50.746;7.116;2022-12-07T08:41:04;4.20;;;3.80;;
34567;SDS011;20806;50.746;7.116;2022-12-07T08:43:30;3.90;;;3.60;;
34567;SDS011;20806;50.746;7.116;2022-12-07T08:48:34;5.68;;;3.67;;
34567;SDS011;20806;50.746;7.116;2022-12-07T08:51:03;3.67;;;3.38;;
34567;SDS011;20806;50.746;7.116;2022-12-07T08:53:29;3.30;;;3.00;;
34567;SDS011;20806;50.746;7.116;2022-12-07T08:55:56;3.47;;;3.17;;
34567;SDS011;20806;50.746;7.116;2022-12-07T08:58:23;4.60;;;3.97;;
34567;SDS011;20806;50.746;7.116;2022-12-07T09:00:48;4.63;;;4.22;;
34567;SDS011;20806;50.746;7.116;2022-12-07T09:03:14;4.20;;;3.90;;
34567;SDS011;20806;50.746;7.116;2022-12-07T09:05:40;4.20;;;3.80;;
34567;SDS011;20806;50.746;7.116;2022-12-07T09:08:05;4.25;;;3.75;;
34567;SDS011;20806;50.746;7.116;2022-12-07T09:10:31;4.07;;;3.72;;
34567;SDS011;20806;50.746;7.116;2022-12-07T09:12:57;4.30;;;3.60;;
34567;SDS011;20806;50.746;7.116;2022-12-07T09:15:26;4.10;;;3.78;;
34567;SDS011;20806;50.746;7.116;2022-12-07T09:17:52;4.65;;;3.53;;
34567;SDS011;20806;50.746;7.116;2022-12-07T09:20:18;4.40;;;3.90;;
34567;SDS011;20806;50.746;7.116;2022-12-07T09:22:43;4.03;;;3.63;;
34567;SDS011;20806;50.746;7.116;2022-12-07T09:25:09;3.50;;;3.20;;
34567;SDS011;20806;50.746;7.116;2022-12-07T09:27:34;3.40;;;3.10;;
34567;SDS011;20806;50.746;7.116;2022-12-07T09:30:00;4.37;;;3.40;;
34567;SDS011;20806;50.746;7.116;2022-12-07T09:32:26;3.97;;;3.40;;
34567;SDS011;20806;50.746;7.116;2022-12-07T09:34:51;3.53;;;3.23;;
34567;SDS011;20806;50.746;7.116;2022-12-07T09:37:17;4.30;;;3.73;;
34567;SDS011;20806;50.746;7.116;2022-12-07T09:39:43;3.67;;;3.38;;
34567;SDS011;20806;50.746;7.116;2022-12-07T09:42:08;3.40;;;2.97;;
34567;SDS011;20806;50.746;7.116;2022-12-07T09:44:39;3.50;;;2.70;;
34567;SDS011;20806;50.746;7.116;2022-12-07T09:47:05;2.90;;;2.60;;
34567;SDS011;20806;50.746;7.116;2022-12-07T09:49:33;3.88;;;3.47;;
34567;SDS011;20806;50.746;7.116;2022-12-07T09:52:00;4.40;;;3.33;;
34567;SDS011;20806;50.746;7.116;2022-12-07T09:54:41;3.60;;;3.30;;
34567;SDS011;20806;50.746;7.116;2022-12-07T09:57:11;3.95;;;3.47;;
34567;SDS011;20806;50.746;7.116;2022-12-07T09:59:37;4.47;;;3.63;;
34567;SDS011;20806;50.746;7.116;2022-12-07T10:04:49;4.32;;;3.35;;
34567;SDS011;20806;50.746;7.116;2022-12-07T10:07:14;3.37;;;3.07;;
34567;SDS011;20806;50.746;7.116;2022-12-07T10:09:40;3.08;;;2.80;;
34567;SDS011;20806;50.746;7.116;2022-12-07T10:12:09;2.88;;;2.58;;
34567;SDS011;20806;50.746;7.116;2022-12-07T10:14:56;3.00;;;2.50;;
34567;SDS011;20806;50.746;7.116;2022-12-07T10:22:54;2.35;;;2.15;;
34567;SDS011;20806;50.746;7.116;2022-12-07T10:25:26;2.70;;;2.25;;
34567;SDS011;20806;50.746;7.116;2022-12-07T10:27:58;2.40;;;2.20;;
34567;SDS011;20806;50.746;7.116;2022-12-07T10:30:57;2.40;;;2.20;;
34567;SDS011;20806;50.746;7.116;2022-12-07T10:33:33;3.08;;;2.35;;
34567;SDS011;20806;50.746;7.116;2022-12-07T10:36:38;2.30;;;2.10;;
34567;SDS011;20806;50.746;7.116;2022-12-07T10:39:11;2.58;;;2.38;;
34567;SDS011;20806;50.746;7.116;2022-12-07T10:42:01;3.10;;;2.25;;
34567;SDS011;20806;50.746;7.116;2022-12-07T10:44:32;2.13;;;1.92;;
34567;SDS011;20806;50.746;7.116;2022-12-07T10:57:45;2.50;;;2.30;;
34567;SDS011;20806;50.746;7.116;2022-12-07T11:00:20;2.73;;;2.53;;
34567;SDS011;20806;50.746;7.116;2022-12-07T11:13:40;2.90;;;2.60;;
34567;SDS011;20806;50.746;7.116;2022-12-07T11:21:32;3.10;;;2.40;;
34567;SDS011;20806;50.746;7.116;2022-12-07T11:24:20;2.30;;;2.10;;
34567;SDS011;20806;50.746;7.116;2022-12-07T11:27:44;2.42;;;2.22;;
34567;SDS011;20806;50.746;7.116;2022-12-07T11:30:12;2.07;;;1.70;;
34567;SDS011;20806;50.746;7.116;2022-12-07T11:35:38;2.97;;;2.10;;
34567;SDS011;20806;50.746;7.116;2022-12-07T11:41:06;1.95;;;1.73;;
34567;SDS011;20806;50.746;7.116;2022-12-07T11:43:47;1.95;;;1.75;;
34567;SDS011;20806;50.746;7.116;2022-12-07T11:46:18;2.97;;;1.80;;
34567;SDS011;20806;50.746;7.116;2022-12-07T11:48:50;2.08;;;1.80;;
34567;SDS011;20806;50.746;7.116;2022-12-07T11:51:19;1.50;;;1.40;;
34567;SDS011;20806;50.746;7.116;2022-12-07T11:53:49;2.22;;;1.60;;
34567;SDS011;20806;50.746;7.116;2022-12-07T11:56:20;1.63;;;1.50;;
34567;SDS011;20806;50.746;7.116;2022-12-07T12:06:36;1.67;;;1.50;;
34567;SDS011;20806;50.746;7.116;2022-12-07T12:09:05;1.67;;;1.58;;
34567;SDS011;20806;50.746;7.116;2022-12-07T12:20:23;1.95;;;1.25;;
34567;SDS011;20806;50.746;7.116;2022-12-07T12:23:23;2.47;;;1.52;;
34567;SDS011;20806;50.746;7.116;2022-12-07T12:26:22;1.60;;;1.42;;
34567;SDS011;20806;50.746;7.116;2022-12-07T12:29:02;2.33;;;1.92;;
34567;SDS011;20806;50.746;7.116;2022-12-07T12:32:03;2.83;;;2.00;;
34567;SDS011;20806;50.746;7.116;2022-12-07T12:34:41;1.88;;;1.60;;
34567;SDS011;20806;50.746;7.116;2022-12-07T12:37:17;1.83;;;1.48;;
34567;SDS011;20806;50.746;7.116;2022-12-07T12:42:44;1.50;;;1.33;;
34567;SDS011;20806;50.746;7.116;2022-12-07T12:45:20;2.60;;;1.70;;
34567;SDS011;20806;50.746;7.116;2022-12-07T12:50:20;3.17;;;1.90;;
34567;SDS011;20806;50.746;7.116;2022-12-07T12:52:50;2.88;;;1.90;;
34567;SDS011;20806;50.746;7.116;2022-12-07T12:55:17;1.95;;;1.65;;
34567;SDS011;20806;50.746;7.116;2022-12-07T12:57:46;1.83;;;1.73;;
34567;SDS011;20806;50.746;7.116;2022-12-07T13:00:21;3.70;;;2.07;;
34567;SDS011;20806;50.746;7.116;2022-12-07T13:02:54;2.95;;;2.05;;
34567;SDS011;20806;50.746;7.116;2022-12-07T13:05:22;2.42;;;1.80;;
34567;SDS011;20806;50.746;7.116;2022-12-07T13:07:53;2.93;;;2.10;;
34567;SDS011;20806;50.746;7.116;2022-12-07T13:15:46;2.85;;;2.00;;
34567;SDS011;20806;50.746;7.116;2022-12-07T13:20:56;3.08;;;2.00;;
34567;SDS011;20806;50.746;7.116;2022-12-07T13:28:47;2.45;;;1.77;;
34567;SDS011;20806;50.746;7.116;2022-12-07T13:31:15;2.83;;;1.85;;
34567;SDS011;20806;50.746;7.116;2022-12-07T13:33:44;1.98;;;1.77;;
34567;SDS011;20806;50.746;7.116;2022-12-07T13:36:33;2.20;;;2.00;;
34567;SDS011;20806;50.746;7.116;2022-12-07T13:39:01;2.40;;;2.20;;
34567;SDS011;20806;50.746;7.116;2022-12-07T13:41:36;2.95;;;1.95;;
34567;SDS011;20806;50.746;7.116;2022-12-07T13:44:11;2.67;;;1.60;;
34567;SDS011;20806;50.746;7.116;2022-12-07T13:46:43;2.33;;;1.55;;
34567;SDS011;20806;50.746;7.116;2022-12-07T13:49:17;2.08;;;1.83;;
34567;SDS011;20806;50.746;7.116;2022-12-07T13:51:44;2.13;;;1.80;;
34567;SDS011;20806;50.746;7.116;2022-12-07T13:54:11;1.70;;;1.60;;
34567;SDS011;20806;50.746;7.116;2022-12-07T13:56:38;1.85;;;1.67;;
34567;SDS011;20806;50.746;7.116;2022-12-07T13:59:17;1.92;;;1.58;;
34567;SDS011;20806;50.746;7.116;2022-12-07T14:01:44;1.90;;;1.70;;
34567;SDS011;20806;50.746;7.116;2022-12-07T14:04:34;2.25;;;1.80;;
34567;SDS011;20806;50.746;7.116;2022-12-07T14:07:15;2.40;;;1.50;;
34567;SDS011;20806;50.746;7.116;2022-12-07T14:09:52;1.83;;;1.67;;
34567;SDS011;20806;50.746;7.116;2022-12-07T14:12:18;2.00;;;1.80;;
34567;SDS011;20806;50.746;7.116;2022-12-07T14:14:46;2.72;;;2.20;;
34567;SDS011;20806;50.746;7.116;2022-12-07T14:20:01;1.77;;;1.67;;
34567;SDS011;20806;50.746;7.116;2022-12-07T14:22:33;1.63;;;1.52;;
34567;SDS011;20806;50.746;7.116;2022-12-07T14:25:19;1.60;;;1.50;;
34567;SDS011;20806;50.746;7.116;2022-12-07T14:27:52;1.90;;;1.33;;
34567;SDS011;20806;50.746;7.116;2022-12-07T14:30:21;1.25;;;1.15;;
34567;SDS011;20806;50.746;7.116;2022-12-07T14:32:50;1.30;;;1.20;;
34567;SDS011;20806;50.746;7.116;2022-12-07T14:35:17;1.15;;;1.00;;
34567;SDS011;20806;50.746;7.116;2022-12-07T14:37:44;1.00;;;0.90;;
34567;SDS011;20806;50.746;7.116;2022-12-07T14:40:15;0.90;;;0.90;;
34567;SDS011;20806;50.746;7.116;2022-12-07T14:42:41;1.13;;;0.90;;
34567;SDS011;20806;50.746;7.116;2022-12-07T14:45:12;0.70;;;0.70;;
34567;SDS011;20806;50.746;7.116;2022-12-07T14:47:39;0.55;;;0.55;;
34567;SDS011;20806;50.746;7.116;2022-12-07T14:50:05;0.80;;;0.80;;
34567;SDS011;20806;50.746;7.116;2022-12-07T14:52:31;0.67;;;0.67;;
34567;SDS011;20806;50.746;7.116;2022-12-07T14:54:57;0.90;;;0.60;;
34567;SDS011;20806;50.746;7.116;2022-12-07T14:57:23;0.50;;;0.50;;
34567;SDS011;20806;50.746;7.116;2022-12-07T14:59:49;0.80;;;0.53;;
34567;SDS011;20806;50.746;7.116;2022-12-07T15:02:15;1.27;;;0.60;;
34567;SDS011;20806;50.746;7.116;2022-12-07T15:04:41;0.70;;;0.70;;
34567;SDS011;20806;50.746;7.116;2022-12-07T15:07:16;0.95;;;0.75;;
34567;SDS011;20806;50.746;7.116;2022-12-07T15:09:44;0.60;;;0.60;;
34567;SDS011;20806;50.746;7.116;2022-12-07T15:12:10;0.60;;;0.60;;
34567;SDS011;20806;50.746;7.116;2022-12-07T15:14:36;0.70;;;0.70;;
34567;SDS011;20806;50.746;7.116;2022-12-07T15:17:02;0.67;;;0.67;;
34567;SDS011;20806;50.746;7.116;2022-12-07T15:19:28;0.65;;;0.65;;
34567;SDS011;20806;50.746;7.116;2022-12-07T15:21:54;0.80;;;0.80;;
34567;SDS011;20806;50.746;7.116;2022-12-07T15:24:20;0.80;;;0.80;;
34567;SDS011;20806;50.746;7.116;2022-12-07T15:26:47;0.70;;;0.70;;
34567;SDS011;20806;50.746;7.116;2022-12-07T15:29:13;0.98;;;0.90;;
34567;SDS011;20806;50.746;7.116;2022-12-07T15:31:39;1.48;;;0.88;;
34567;SDS011;20806;50.746;7.116;2022-12-07T15:34:05;0.90;;;0.73;;
34567;SDS011;20806;50.746;7.116;2022-12-07T15:36:32;0.88;;;0.88;;
34567;SDS011;20806;50.746;7.116;2022-12-07T15:38:58;1.00;;;0.82;;
34567;SDS011;20806;50.746;7.116;2022-12-07T15:41:25;0.73;;;0.73;;
34567;SDS011;20806;50.746;7.116;2022-12-07T15:43:52;0.90;;;0.80;;
34567;SDS011;20806;50.746;7.116;2022-12-07T15:46:37;1.10;;;0.95;;
34567;SDS011;20806;50.746;7.116;2022-12-07T15:49:03;1.00;;;0.90;;
34567;SDS011;20806;50.746;7.116;2022-12-07T15:51:29;0.82;;;0.82;;
34567;SDS011;20806;50.746;7.116;2022-12-07T15:53:57;1.02;;;0.93;;
34567;SDS011;20806;50.746;7.116;2022-12-07T15:56:23;1.10;;;1.00;;
34567;SDS011;20806;50.746;7.116;2022-12-07T15:58:49;1.30;;;1.15;;
34567;SDS011;20806;50.746;7.116;2022-12-07T16:01:16;1.27;;;1.00;;
34567;SDS011;20806;50.746;7.116;2022-12-07T16:03:43;1.10;;;1.00;;
34567;SDS011;20806;50.746;7.116;2022-12-07T16:06:09;1.30;;;1.00;;
34567;SDS011;20806;50.746;7.116;2022-12-07T16:08:35;1.30;;;1.20;;
34567;SDS011;20806;50.746;7.116;2022-12-07T16:11:04;1.85;;;1.10;;
34567;SDS011;20806;50.746;7.116;2022-12-07T16:13:30;1.13;;;1.00;;
34567;SDS011;20806;50.746;7.116;2022-12-07T16:15:56;1.10;;;1.00;;
34567;SDS011;20806;50.746;7.116;2022-12-07T16:18:22;1.20;;;1.10;;
34567;SDS011;20806;50.746;7.116;2022-12-07T16:20:48;1.25;;;1.25;;
34567;SDS011;20806;50.746;7.116;2022-12-07T16:23:14;1.15;;;1.05;;
34567;SDS011;20806;50.746;7.116;2022-12-07T16:25:40;1.20;;;1.08;;
34567;SDS011;20806;50.746;7.116;2022-12-07T16:28:07;1.70;;;1.30;;
34567;SDS011;20806;50.746;7.116;2022-12-07T16:30:33;1.10;;;1.00;;
34567;SDS011;20806;50.746;7.116;2022-12-07T16:32:59;1.60;;;1.40;;
34567;SDS011;20806;50.746;7.116;2022-12-07T16:35:25;1.40;;;1.20;;
34567;SDS011;20806;50.746;7.116;2022-12-07T16:37:51;1.50;;;1.25;;
34567;SDS011;20806;50.746;7.116;2022-12-07T16:40:17;1.20;;;1.10;;
34567;SDS011;20806;50.746;7.116;2022-12-07T16:42:43;1.73;;;1.15;;
34567;SDS011;20806;50.746;7.116;2022-12-07T16:45:09;1.45;;;1.20;;
34567;SDS011;20806;50.746;7.116;2022-12-07T16:47:39;1.40;;;1.30;;
34567;SDS011;20806;50.746;7.116;2022-12-07T16:50:05;2.03;;;1.63;;
34567;SDS011;20806;50.746;7.116;2022-12-07T16:52:32;1.60;;;1.50;;
34567;SDS011;20806;50.746;7.116;2022-12-07T16:54:58;1.95;;;1.75;;